Time;durP1;ratioP1;P1;durP2;ratioP2;P2;SDS_P1;SDS_P2;PMS_P1;PMS_P2;Temp;Humidity;BMP_temperature;BMP_pressure;BME280_temperature;BME280_humidity;BME280_pressure;Samples;Min_cycle;Max_cycle;Signal;HPM_P1;HPM_P2
2022/03/08 00:01:33;;;;;;;2.28;2.08;;;17.10;48.40;;;;;;5051603;28;20222;-65
2022/03/08 00:03:58;;;;;;;2.38;2.28;;;17.10;48.40;;;;;;5052237;28;20229;-65
2022/03/08 00:06:24;;;;;;;2.80;2.17;;;17.00;48.40;;;;;;5052036;28;20178;-65
2022/03/08 00:08:50;;;;;;;2.45;2.25;;;17.00;48.40;;;;;;5051751;28;20274;-65
2022/03/08 00:11:16;;;;;;;2.50;2.30;;;17.00;48.40;;;;;;5051987;28;20198;-66
2022/03/08 00:13:42;;;;;;;2.90;2.38;;;17.00;48.40;;;;;;5052268;28;20233;-67
2022/03/08 00:16:07;;;;;;;2.30;2.20;;;17.00;48.40;;;;;;5051132;28;20590;-67
2022/03/08 00:18:33;;;;;;;2.63;2.30;;;17.00;48.40;;;;;;5052631;28;20190;-66
2022/03/08 00:20:58;;;;;;;2.20;2.03;;;17.00;48.40;;;;;;5051875;28;20210;-66
2022/03/08 00:23:24;;;;;;;2.20;1.98;;;16.90;48.40;;;;;;5049791;28;20541;-66
2022/03/08 00:25:49;;;;;;;2.15;2.05;;;16.90;48.40;;;;;;5052047;28;20658;-66
2022/03/08 00:28:15;;;;;;;2.28;2.17;;;16.90;48.40;;;;;;5051551;28;20568;-67
2022/03/08 00:30:40;;;;;;;2.35;2.05;;;16.90;48.40;;;;;;5051290;28;20199;-66
2022/03/08 00:33:06;;;;;;;2.55;2.35;;;16.90;48.40;;;;;;5051449;28;20210;-65
2022/03/08 00:35:32;;;;;;;2.40;2.20;;;16.90;48.40;;;;;;5051970;28;20232;-65
2022/03/08 00:37:59;;;;;;;2.45;2.25;;;16.90;48.40;;;;;;5051502;28;20321;-65
2022/03/08 00:40:24;;;;;;;2.75;2.20;;;16.80;48.40;;;;;;5051301;28;20186;-66
2022/03/08 00:42:50;;;;;;;2.40;2.20;;;16.90;48.40;;;;;;5051676;28;20175;-66
2022/03/08 00:45:16;;;;;;;2.70;2.45;;;16.80;48.40;;;;;;5050565;28;20254;-65
2022/03/08 00:47:42;;;;;;;2.40;2.20;;;16.80;48.40;;;;;;5051626;28;20332;-66
2022/03/08 00:50:15;;;;;;;2.20;2.00;;;16.80;48.40;;;;;;5051678;28;20177;-66
2022/03/08 00:52:41;;;;;;;2.70;2.40;;;16.80;48.40;;;;;;5051627;28;20609;-65
2022/03/08 00:55:07;;;;;;;2.60;2.33;;;16.80;48.40;;;;;;5050578;28;20219;-66
2022/03/08 00:57:32;;;;;;;2.38;2.17;;;16.80;48.40;;;;;;5050804;28;20293;-65
2022/03/08 00:59:58;;;;;;;1.95;1.85;;;16.70;48.40;;;;;;5051289;28;20175;-66
2022/03/08 01:02:23;;;;;;;2.40;2.20;;;16.70;48.40;;;;;;5051036;28;20211;-65
2022/03/08 01:04:49;;;;;;;2.53;2.33;;;16.70;48.40;;;;;;5050687;28;20190;-65
2022/03/08 01:07:14;;;;;;;2.55;2.30;;;16.70;48.50;;;;;;5051036;28;20605;-65
2022/03/08 01:09:40;;;;;;;2.72;2.53;;;16.70;48.50;;;;;;5050294;28;20187;-66
2022/03/08 01:12:06;;;;;;;2.35;2.15;;;16.70;48.40;;;;;;5049499;28;20344;-67
2022/03/08 01:14:31;;;;;;;2.58;2.38;;;16.70;48.40;;;;;;5051097;28;20171;-67
2022/03/08 01:16:57;;;;;;;3.00;2.78;;;16.60;48.40;;;;;;5051666;28;20182;-66
2022/03/08 01:19:22;;;;;;;2.42;2.22;;;16.60;48.40;;;;;;5050296;28;20198;-66
2022/03/08 01:21:48;;;;;;;2.33;1.80;;;16.60;48.40;;;;;;5051231;28;20743;-67
2022/03/08 01:24:13;;;;;;;2.20;2.00;;;16.60;48.40;;;;;;5051000;28;20222;-66
2022/03/08 01:26:39;;;;;;;2.35;2.17;;;16.60;48.40;;;;;;5049307;28;20250;-67
2022/03/08 01:29:04;;;;;;;2.20;2.00;;;16.60;48.40;;;;;;5051253;28;20205;-67
2022/03/08 01:31:30;;;;;;;2.13;2.03;;;16.60;48.40;;;;;;5050938;28;20272;-66
2022/03/08 01:33:56;;;;;;;2.17;1.98;;;16.60;48.40;;;;;;5050749;28;20630;-65
2022/03/08 01:36:22;;;;;;;2.40;2.20;;;16.60;48.40;;;;;;5050990;28;20190;-65
2022/03/08 01:38:47;;;;;;;2.00;1.90;;;16.50;48.40;;;;;;5051382;28;20175;-65
2022/03/08 01:41:13;;;;;;;2.55;2.35;;;16.50;48.40;;;;;;5050086;28;20511;-66
2022/03/08 01:43:38;;;;;;;2.17;2.08;;;16.50;48.40;;;;;;5051022;28;20179;-66
2022/03/08 01:46:04;;;;;;;2.28;2.08;;;16.50;48.40;;;;;;5050939;28;20218;-67
2022/03/08 01:48:30;;;;;;;2.83;2.30;;;16.50;48.40;;;;;;5050163;28;20182;-67
2022/03/08 01:50:56;;;;;;;2.35;2.15;;;16.50;48.40;;;;;;5051191;28;20187;-66
2022/03/08 01:53:21;;;;;;;2.25;2.05;;;16.50;48.40;;;;;;5049513;28;20246;-66
2022/03/08 01:55:47;;;;;;;2.33;2.20;;;16.50;48.40;;;;;;5050230;28;20584;-66
2022/03/08 01:58:12;;;;;;;2.70;2.47;;;16.50;48.40;;;;;;5050537;28;20171;-66
2022/03/08 02:00:38;;;;;;;2.72;2.10;;;16.50;48.50;;;;;;5049162;28;20191;-65
2022/03/08 02:03:04;;;;;;;3.60;2.63;;;16.40;48.40;;;;;;5051260;28;20182;-65
2022/03/08 02:05:29;;;;;;;2.35;2.15;;;16.50;48.50;;;;;;5051062;28;20178;-65
2022/03/08 02:07:55;;;;;;;2.22;2.03;;;16.40;48.40;;;;;;5054118;28;20179;-65
2022/03/08 02:10:20;;;;;;;2.08;1.95;;;16.40;48.40;;;;;;5053069;28;20164;-67
2022/03/08 02:12:46;;;;;;;3.05;2.40;;;16.40;48.40;;;;;;5054417;28;20661;-67
2022/03/08 02:15:19;;;;;;;2.40;2.20;;;16.40;48.40;;;;;;5053562;28;20530;-67
2022/03/08 02:17:45;;;;;;;2.33;2.05;;;16.40;48.40;;;;;;5054747;28;20269;-67
2022/03/08 02:20:11;;;;;;;2.30;2.17;;;16.40;48.50;;;;;;5054120;28;20313;-66
2022/03/08 02:22:36;;;;;;;1.98;1.80;;;16.40;48.40;;;;;;5054019;28;20210;-67
2022/03/08 02:25:03;;;;;;;2.42;2.22;;;16.30;48.40;;;;;;5054601;28;20248;-67
2022/03/08 02:27:28;;;;;;;2.10;2.00;;;16.30;48.40;;;;;;5053962;28;20179;-67
2022/03/08 02:29:54;;;;;;;2.10;2.00;;;16.30;48.40;;;;;;5052423;28;20225;-67
2022/03/08 02:32:19;;;;;;;2.28;2.10;;;16.30;48.50;;;;;;5054085;28;20183;-66
2022/03/08 02:34:45;;;;;;;2.13;2.00;;;16.30;48.40;;;;;;5054395;28;20175;-65
2022/03/08 02:37:13;;;;;;;2.50;2.28;;;16.30;48.40;;;;;;5053260;28;20175;-66
2022/03/08 02:39:39;;;;;;;2.22;2.10;;;16.30;48.40;;;;;;5054263;28;20187;-65
2022/03/08 02:42:05;;;;;;;2.10;1.90;;;16.30;48.40;;;;;;5053886;28;20554;-66
2022/03/08 02:44:30;;;;;;;2.17;2.00;;;16.30;48.40;;;;;;5053184;28;20550;-66
2022/03/08 02:46:56;;;;;;;2.33;2.13;;;16.30;48.40;;;;;;5054179;28;20195;-66
2022/03/08 02:49:22;;;;;;;2.17;2.00;;;16.20;48.40;;;;;;5053713;28;20632;-66
2022/03/08 02:51:47;;;;;;;2.28;2.10;;;16.20;48.40;;;;;;5053291;28;20187;-67
2022/03/08 02:54:13;;;;;;;2.30;2.10;;;16.20;48.40;;;;;;5053394;28;20258;-66
2022/03/08 02:56:38;;;;;;;2.40;2.20;;;16.30;48.50;;;;;;5053783;28;20182;-66
2022/03/08 02:59:04;;;;;;;2.15;1.95;;;16.20;48.40;;;;;;5053215;28;20167;-65
2022/03/08 03:01:29;;;;;;;1.92;1.80;;;16.20;48.40;;;;;;5053311;28;20214;-65
2022/03/08 03:03:55;;;;;;;2.38;2.17;;;16.20;48.40;;;;;;5052946;28;20167;-65
2022/03/08 03:06:20;;;;;;;2.20;2.10;;;16.20;48.40;;;;;;5053338;28;20179;-65
2022/03/08 03:08:46;;;;;;;2.47;2.28;;;16.20;48.40;;;;;;5053527;28;20167;-65
2022/03/08 03:11:11;;;;;;;2.00;1.83;;;16.20;48.40;;;;;;5052432;28;20183;-67
2022/03/08 03:13:37;;;;;;;2.28;2.10;;;16.20;48.50;;;;;;5053579;28;20619;-66
2022/03/08 03:16:02;;;;;;;2.30;2.13;;;16.10;48.40;;;;;;5053472;28;20180;-66
2022/03/08 03:18:28;;;;;;;2.38;2.17;;;16.10;48.40;;;;;;5052305;28;20209;-66
2022/03/08 03:20:53;;;;;;;2.20;2.10;;;16.10;48.40;;;;;;5053336;28;20543;-65
2022/03/08 03:23:19;;;;;;;2.03;1.92;;;16.10;48.40;;;;;;5053056;28;20707;-66
2022/03/08 03:25:44;;;;;;;2.13;2.00;;;16.10;48.40;;;;;;5052631;28;20175;-66
2022/03/08 03:28:10;;;;;;;3.17;1.98;;;16.10;48.40;;;;;;5053122;28;20176;-67
2022/03/08 03:30:35;;;;;;;2.40;2.20;;;16.10;48.40;;;;;;5053269;28;20262;-67
2022/03/08 03:33:02;;;;;;;1.92;1.83;;;16.10;48.40;;;;;;5052540;28;20174;-64
2022/03/08 03:35:28;;;;;;;2.08;1.98;;;16.00;48.40;;;;;;5052854;28;20179;-65
2022/03/08 03:37:53;;;;;;;2.00;1.90;;;16.00;48.40;;;;;;5053134;28;20185;-64
2022/03/08 03:40:19;;;;;;;2.50;2.30;;;16.00;48.40;;;;;;5052090;28;20316;-65
2022/03/08 03:42:44;;;;;;;1.92;1.83;;;16.00;48.40;;;;;;5052971;28;20730;-66
2022/03/08 03:45:10;;;;;;;1.92;1.83;;;16.00;48.40;;;;;;5052461;28;20618;-66
2022/03/08 03:47:36;;;;;;;1.95;1.80;;;16.00;48.40;;;;;;5052127;28;20198;-66
2022/03/08 03:50:02;;;;;;;2.00;1.80;;;16.00;48.40;;;;;;5052768;28;20603;-66
2022/03/08 03:52:27;;;;;;;2.00;1.90;;;16.00;48.40;;;;;;5052209;28;20202;-66
2022/03/08 03:54:53;;;;;;;1.92;1.83;;;16.00;48.40;;;;;;5051719;28;20690;-65
2022/03/08 03:57:18;;;;;;;1.70;1.60;;;16.00;48.40;;;;;;5051746;28;20190;-65
2022/03/08 03:59:44;;;;;;;2.15;1.95;;;16.00;48.40;;;;;;5052738;28;20174;-65
2022/03/08 04:02:10;;;;;;;2.33;1.90;;;16.00;48.40;;;;;;5051494;28;20221;-64
2022/03/08 04:04:35;;;;;;;2.33;1.98;;;15.90;48.40;;;;;;5052403;28;20615;-66
2022/03/08 04:07:01;;;;;;;1.90;1.80;;;15.90;48.40;;;;;;5052430;28;20226;-65
2022/03/08 04:09:26;;;;;;;2.28;2.15;;;15.90;48.40;;;;;;5051274;28;20262;-65
2022/03/08 04:11:52;;;;;;;1.77;1.67;;;15.90;48.40;;;;;;5052386;28;20621;-67
2022/03/08 04:14:17;;;;;;;2.25;1.85;;;15.90;48.40;;;;;;5051370;28;20321;-66
2022/03/08 04:16:43;;;;;;;2.30;2.17;;;15.90;48.40;;;;;;5051983;28;20175;-67
2022/03/08 04:19:08;;;;;;;2.20;2.00;;;15.90;48.40;;;;;;5051913;28;20177;-66
2022/03/08 04:21:34;;;;;;;1.90;1.80;;;15.80;48.40;;;;;;5051339;28;20209;-66
2022/03/08 04:23:59;;;;;;;1.90;1.80;;;15.80;48.40;;;;;;5051922;28;20179;-66
2022/03/08 04:26:25;;;;;;;2.75;2.17;;;15.90;48.40;;;;;;5052119;28;20225;-66
2022/03/08 04:28:50;;;;;;;1.80;1.70;;;15.90;48.50;;;;;;5050686;28;20171;-66
2022/03/08 04:31:16;;;;;;;1.88;1.77;;;15.80;48.40;;;;;;5051634;28;20171;-66
2022/03/08 04:33:41;;;;;;;2.17;2.05;;;15.80;48.40;;;;;;5052119;28;20197;-65
2022/03/08 04:36:07;;;;;;;2.35;2.15;;;15.80;48.40;;;;;;5050800;28;20179;-65
2022/03/08 04:38:32;;;;;;;1.80;1.70;;;15.80;48.40;;;;;;5051737;28;20529;-65
2022/03/08 04:41:02;;;;;;;1.80;1.70;;;15.80;48.40;;;;;;5051532;28;20195;-66
2022/03/08 04:43:28;;;;;;;2.55;1.88;;;15.80;48.40;;;;;;5050711;28;20189;-65
2022/03/08 04:45:54;;;;;;;1.63;1.52;;;15.80;48.40;;;;;;5051907;28;20194;-66
2022/03/08 04:48:19;;;;;;;1.80;1.70;;;15.70;49.00;;;;;;5051416;28;20261;-66
2022/03/08 04:50:45;;;;;;;2.17;1.98;;;15.70;48.40;;;;;;5050960;28;20181;-66
2022/03/08 04:53:10;;;;;;;1.95;1.85;;;15.70;48.40;;;;;;5051248;28;20179;-66
2022/03/08 04:55:36;;;;;;;1.85;1.75;;;15.70;48.40;;;;;;5051355;28;20227;-66
2022/03/08 04:58:01;;;;;;;1.85;1.75;;;15.70;48.40;;;;;;5050744;28;20175;-66
2022/03/08 05:00:27;;;;;;;1.70;1.60;;;15.70;48.40;;;;;;5051211;28;20682;-65
2022/03/08 05:02:52;;;;;;;1.92;1.83;;;15.70;48.40;;;;;;5051200;28;20179;-65
2022/03/08 05:05:18;;;;;;;1.75;1.60;;;15.70;48.40;;;;;;5050555;28;20167;-65
2022/03/08 05:07:43;;;;;;;1.70;1.60;;;15.70;48.40;;;;;;5051290;28;20182;-65
2022/03/08 05:10:10;;;;;;;1.90;1.73;;;15.70;48.40;;;;;;5050840;28;20229;-67
2022/03/08 05:12:36;;;;;;;1.80;1.70;;;15.70;48.40;;;;;;5050839;28;20236;-66
2022/03/08 05:15:02;;;;;;;2.25;1.83;;;15.60;48.40;;;;;;5050105;28;20526;-66
2022/03/08 05:17:27;;;;;;;1.80;1.70;;;15.70;48.40;;;;;;5050513;28;20225;-65
2022/03/08 05:19:53;;;;;;;1.67;1.58;;;15.70;48.40;;;;;;5051031;28;20167;-67
2022/03/08 05:22:18;;;;;;;1.90;1.80;;;15.60;48.40;;;;;;5050683;28;20222;-66
2022/03/08 05:24:44;;;;;;;2.05;1.70;;;15.60;48.40;;;;;;5050728;28;20666;-67
2022/03/08 05:27:10;;;;;;;1.80;1.70;;;15.60;48.50;;;;;;5051028;28;20549;-67
2022/03/08 05:29:36;;;;;;;1.60;1.50;;;15.60;48.40;;;;;;5051079;28;20220;-67
2022/03/08 05:32:01;;;;;;;1.88;1.52;;;15.60;48.40;;;;;;5050360;28;20190;-66
2022/03/08 05:34:27;;;;;;;2.10;1.90;;;15.60;48.40;;;;;;5050654;28;20187;-65
2022/03/08 05:36:52;;;;;;;2.08;1.88;;;15.60;48.50;;;;;;5051166;28;20182;-65
2022/03/08 05:39:18;;;;;;;1.90;1.80;;;15.50;48.40;;;;;;5049986;28;20186;-65
2022/03/08 05:41:43;;;;;;;1.80;1.70;;;15.50;48.40;;;;;;5054790;28;20210;-66
2022/03/08 05:44:09;;;;;;;2.10;1.60;;;15.50;48.40;;;;;;5054809;28;20179;-66
2022/03/08 05:46:35;;;;;;;1.50;1.40;;;15.50;48.40;;;;;;5054339;28;20187;-67
2022/03/08 05:49:00;;;;;;;1.80;1.70;;;15.50;48.40;;;;;;5054949;28;20182;-66
2022/03/08 05:51:25;;;;;;;1.70;1.60;;;15.50;48.40;;;;;;5054600;28;20214;-66
2022/03/08 05:53:51;;;;;;;1.70;1.60;;;15.50;48.40;;;;;;5054133;28;20201;-66
2022/03/08 05:56:16;;;;;;;1.90;1.80;;;15.50;48.40;;;;;;5054431;28;20223;-65
2022/03/08 05:58:42;;;;;;;1.85;1.75;;;15.50;48.40;;;;;;5054905;28;20649;-65
2022/03/08 06:01:07;;;;;;;2.22;1.58;;;15.50;48.40;;;;;;5053960;28;20214;-65
2022/03/08 06:03:33;;;;;;;1.83;1.73;;;15.50;48.30;;;;;;5055049;28;20175;-65
2022/03/08 06:05:58;;;;;;;1.80;1.70;;;15.60;48.20;;;;;;5054714;28;20190;-66
2022/03/08 06:08:24;;;;;;;1.90;1.80;;;15.60;48.20;;;;;;5053495;28;20254;-65
2022/03/08 06:10:49;;;;;;;1.98;1.88;;;15.70;48.20;;;;;;5054751;28;20175;-66
2022/03/08 06:13:15;;;;;;;1.70;1.60;;;15.70;48.10;;;;;;5054503;28;20171;-66
2022/03/08 06:15:40;;;;;;;1.60;1.50;;;15.80;48.00;;;;;;5053966;28;20171;-67
2022/03/08 06:18:06;;;;;;;1.63;1.52;;;15.90;47.80;;;;;;5054147;28;20198;-66
2022/03/08 06:20:31;;;;;;;1.80;1.70;;;15.90;47.70;;;;;;5054127;28;20542;-66
2022/03/08 06:22:57;;;;;;;1.60;1.45;;;15.90;47.60;;;;;;5053791;28;20233;-67
2022/03/08 06:25:22;;;;;;;1.65;1.55;;;16.00;47.60;;;;;;5053941;28;20696;-66
2022/03/08 06:27:48;;;;;;;1.63;1.52;;;16.00;47.60;;;;;;5052619;28;20253;-66
2022/03/08 06:30:14;;;;;;;1.58;1.48;;;16.10;47.60;;;;;;5053932;28;20183;-67
2022/03/08 06:32:39;;;;;;;1.88;1.73;;;16.20;47.60;;;;;;5054001;28;20646;-65
2022/03/08 06:35:05;;;;;;;1.50;1.40;;;16.20;47.40;;;;;;5053409;28;20167;-65
2022/03/08 06:37:31;;;;;;;1.67;1.58;;;16.30;47.40;;;;;;5053942;28;20214;-65
2022/03/08 06:39:56;;;;;;;1.75;1.65;;;16.40;47.20;;;;;;5054085;28;20198;-65
2022/03/08 06:42:22;;;;;;;1.60;1.50;;;16.50;47.20;;;;;;5053114;28;20652;-66
2022/03/08 06:44:47;;;;;;;1.65;1.55;;;16.50;47.10;;;;;;5053959;28;20583;-66
2022/03/08 06:47:13;;;;;;;1.55;1.45;;;16.60;47.10;;;;;;5053546;28;20657;-66
2022/03/08 06:49:39;;;;;;;1.55;1.45;;;16.60;47.00;;;;;;5053205;28;20262;-66
2022/03/08 06:52:05;;;;;;;1.70;1.60;;;16.70;46.90;;;;;;5052783;28;20222;-66
2022/03/08 06:54:31;;;;;;;1.40;1.30;;;16.60;46.90;;;;;;5053554;28;20238;-66
2022/03/08 06:56:56;;;;;;;1.50;1.40;;;16.60;46.90;;;;;;5053295;28;20167;-65
2022/03/08 06:59:22;;;;;;;1.33;1.27;;;16.60;46.90;;;;;;5053329;28;20229;-66
2022/03/08 07:01:48;;;;;;;1.63;1.52;;;16.60;47.00;;;;;;5053709;28;20218;-65
2022/03/08 07:04:13;;;;;;;1.65;1.55;;;16.60;47.00;;;;;;5052566;28;20658;-65
2022/03/08 07:06:39;;;;;;;1.52;1.42;;;16.70;47.10;;;;;;5053351;28;20187;-64
2022/03/08 07:09:05;;;;;;;1.50;1.40;;;16.80;46.90;;;;;;5053764;28;20182;-64
2022/03/08 07:11:31;;;;;;;1.50;1.40;;;16.80;46.70;;;;;;5052964;28;20179;-66
2022/03/08 07:13:56;;;;;;;1.55;1.45;;;17.00;46.60;;;;;;5053288;28;20183;-66
2022/03/08 07:16:22;;;;;;;1.48;1.38;;;17.00;46.50;;;;;;5053201;28;20225;-66
2022/03/08 07:18:48;;;;;;;1.40;1.30;;;17.10;46.40;;;;;;5052513;28;20634;-65
2022/03/08 07:21:13;;;;;;;1.40;1.30;;;17.20;46.30;;;;;;5052872;28;20202;-65
2022/03/08 07:23:39;;;;;;;1.35;1.25;;;17.20;46.20;;;;;;5053560;28;20170;-65
2022/03/08 07:26:05;;;;;;;1.60;1.20;;;17.30;46.20;;;;;;5052527;28;20206;-67
2022/03/08 07:28:31;;;;;;;1.40;1.25;;;17.40;46.10;;;;;;5053213;28;20177;-67
2022/03/08 07:30:56;;;;;;;1.58;1.48;;;17.50;46.10;;;;;;5053295;28;20171;-66
2022/03/08 07:33:21;;;;;;;1.65;1.55;;;17.60;46.00;;;;;;5052302;28;20240;-65
2022/03/08 07:35:47;;;;;;;1.77;1.30;;;17.70;45.90;;;;;;5053067;28;20198;-64
2022/03/08 07:38:13;;;;;;;2.00;1.45;;;17.80;45.70;;;;;;5052387;28;20171;-64
2022/03/08 07:40:39;;;;;;;1.48;1.38;;;18.00;45.60;;;;;;5053162;28;20225;-66
2022/03/08 07:43:04;;;;;;;3.22;1.63;;;18.00;45.80;;;;;;5053107;28;20210;-66
2022/03/08 07:45:30;;;;;;;2.25;1.45;;;18.10;45.80;;;;;;5051791;28;20195;-66
2022/03/08 07:47:55;;;;;;;1.77;1.67;;;18.20;45.60;;;;;;5040634;28;20190;-66
2022/03/08 07:50:22;;;;;;;1.80;1.70;;;18.30;45.60;;;;;;5048610;28;20495;-66
2022/03/08 07:52:48;;;;;;;2.63;1.70;;;18.30;45.60;;;;;;5050685;28;20646;-65
2022/03/08 07:55:13;;;;;;;2.35;1.40;;;18.30;45.70;;;;;;5052346;28;20238;-66
2022/03/08 07:57:39;;;;;;;2.38;1.70;;;18.30;45.50;;;;;;5052605;28;20175;-64
2022/03/08 08:00:05;;;;;;;2.60;1.63;;;18.40;45.70;;;;;;5051893;28;20175;-65
2022/03/08 08:02:30;;;;;;;2.70;1.65;;;18.40;45.70;;;;;;5051952;28;20666;-64
2022/03/08 08:04:56;;;;;;;1.80;1.60;;;18.50;45.60;;;;;;5051256;28;20167;-64
2022/03/08 08:07:21;;;;;;;2.75;1.77;;;18.50;45.60;;;;;;5051724;28;20627;-65
2022/03/08 08:09:47;;;;;;;2.20;1.55;;;18.50;45.60;;;;;;5052504;28;20175;-66
2022/03/08 08:12:13;;;;;;;1.67;1.50;;;18.60;45.60;;;;;;5051890;28;20634;-66
2022/03/08 08:14:39;;;;;;;3.03;1.50;;;18.60;45.60;;;;;;5050461;28;20191;-64
2022/03/08 08:17:05;;;;;;;5.32;1.58;;;18.60;45.60;;;;;;5052173;28;20634;-64
2022/03/08 08:19:30;;;;;;;1.98;1.52;;;18.60;45.50;;;;;;5052116;28;20213;-65
2022/03/08 08:21:56;;;;;;;1.77;1.55;;;18.60;45.50;;;;;;5051223;28;20225;-65
2022/03/08 08:24:21;;;;;;;1.30;1.20;;;18.70;45.50;;;;;;5051858;28;20179;-66
2022/03/08 08:26:47;;;;;;;3.05;1.77;;;18.70;45.60;;;;;;5052307;28;20175;-65
2022/03/08 08:29:12;;;;;;;2.65;1.83;;;18.70;45.50;;;;;;5050951;28;20237;-65
2022/03/08 08:31:38;;;;;;;1.65;1.55;;;18.70;45.60;;;;;;5051780;28;20175;-64
2022/03/08 08:34:04;;;;;;;3.47;1.40;;;18.70;45.70;;;;;;5051926;28;20179;-63
2022/03/08 08:36:29;;;;;;;4.10;1.60;;;18.70;45.70;;;;;;5050583;28;20186;-64
2022/03/08 08:38:55;;;;;;;1.77;1.35;;;18.70;45.60;;;;;;5052032;28;20172;-63
2022/03/08 08:41:20;;;;;;;1.92;1.75;;;18.70;45.70;;;;;;5051552;28;20573;-64
2022/03/08 08:43:46;;;;;;;2.13;1.90;;;18.70;45.70;;;;;;5050872;28;20183;-64
2022/03/08 08:46:11;;;;;;;1.52;1.42;;;18.70;45.70;;;;;;5051436;28;20255;-65
2022/03/08 08:48:37;;;;;;;1.35;1.25;;;18.70;45.70;;;;;;5051035;28;20182;-65
2022/03/08 08:51:03;;;;;;;2.22;1.55;;;18.60;45.70;;;;;;5051560;28;20177;-64
2022/03/08 08:53:29;;;;;;;2.95;1.30;;;18.60;45.80;;;;;;5051601;28;20313;-65
2022/03/08 08:55:54;;;;;;;2.65;1.52;;;18.50;45.90;;;;;;5050698;28;20321;-64
2022/03/08 08:58:20;;;;;;;1.52;1.42;;;18.50;46.00;;;;;;5051250;28;20309;-63
2022/03/08 09:00:45;;;;;;;1.60;1.50;;;18.50;46.00;;;;;;5051410;28;20190;-64
2022/03/08 09:03:14;;;;;;;2.53;1.77;;;18.40;46.00;;;;;;5050368;28;20186;-63
2022/03/08 09:05:42;;;;;;;1.30;1.10;;;18.50;46.10;;;;;;5051533;28;20198;-64
2022/03/08 09:08:08;;;;;;;2.42;1.48;;;18.50;46.10;;;;;;5051386;28;20179;-63
2022/03/08 09:10:33;;;;;;;2.58;1.70;;;18.50;46.10;;;;;;5050802;28;20236;-65
2022/03/08 09:12:59;;;;;;;2.10;1.17;;;18.50;46.10;;;;;;5051318;28;20190;-65
2022/03/08 09:15:25;;;;;;;1.63;1.48;;;18.60;46.00;;;;;;5050703;28;20913;-65
2022/03/08 09:17:50;;;;;;;2.80;1.63;;;18.60;46.00;;;;;;5050540;28;20313;-64
2022/03/08 09:20:16;;;;;;;1.42;1.33;;;18.60;45.90;;;;;;5050798;28;20645;-65
2022/03/08 09:22:41;;;;;;;1.40;1.30;;;18.60;45.90;;;;;;5051443;28;20215;-65
2022/03/08 09:25:07;;;;;;;1.77;1.63;;;18.70;46.00;;;;;;5050185;28;20175;-65
2022/03/08 09:27:34;;;;;;;1.50;1.40;;;18.60;45.80;;;;;;5051332;28;20175;-65
2022/03/08 09:30:00;;;;;;;2.42;1.60;;;18.60;45.90;;;;;;5051262;28;20195;-65
2022/03/08 09:32:25;;;;;;;2.22;1.45;;;18.60;45.90;;;;;;5049946;28;20304;-64
2022/03/08 09:34:51;;;;;;;2.20;1.30;;;18.50;46.00;;;;;;5051092;28;20175;-63
2022/03/08 09:37:16;;;;;;;1.73;1.30;;;18.50;46.10;;;;;;5050843;28;20653;-63
2022/03/08 09:39:42;;;;;;;1.77;1.60;;;18.50;46.10;;;;;;5050251;28;20183;-63
2022/03/08 09:42:07;;;;;;;1.65;1.45;;;18.50;46.20;;;;;;5050827;28;20225;-64
2022/03/08 09:44:33;;;;;;;2.22;1.50;;;18.50;46.20;;;;;;5050993;28;20167;-65
2022/03/08 09:46:58;;;;;;;1.92;1.40;;;18.50;46.20;;;;;;5050043;28;20183;-64
2022/03/08 09:49:24;;;;;;;1.33;1.23;;;18.60;46.20;;;;;;5050728;28;20175;-65
2022/03/08 09:51:53;;;;;;;1.27;1.15;;;18.60;46.10;;;;;;5050357;28;20176;-65
2022/03/08 09:54:18;;;;;;;1.55;1.45;;;18.60;46.10;;;;;;5050604;28;20246;-65
2022/03/08 09:56:44;;;;;;;1.70;1.60;;;18.60;46.20;;;;;;5051166;28;20175;-64
2022/03/08 09:59:09;;;;;;;1.35;1.10;;;18.50;46.10;;;;;;5049781;28;20258;-64
2022/03/08 10:01:35;;;;;;;1.88;1.35;;;18.50;46.10;;;;;;5050665;28;20234;-64
2022/03/08 10:04:01;;;;;;;1.60;1.30;;;18.50;46.10;;;;;;5051124;28;20183;-64
2022/03/08 10:06:41;;;;;;;1.70;1.30;;;18.50;46.10;;;;;;5049842;28;20237;-64
2022/03/08 10:09:16;;;;;;;1.50;1.30;;;18.50;46.10;;;;;;5050657;28;20602;-65
2022/03/08 10:11:42;;;;;;;2.67;1.33;;;18.50;46.10;;;;;;5050965;28;20241;-66
2022/03/08 10:14:12;;;;;;;1.30;1.20;;;18.50;46.00;;;;;;5049589;28;20606;-66
2022/03/08 10:16:44;;;;;;;2.25;1.20;;;18.50;46.00;;;;;;5050892;28;20188;-66
2022/03/08 10:19:10;;;;;;;1.58;1.40;;;18.50;46.00;;;;;;5050520;28;20202;-65
2022/03/08 10:21:47;;;;;;;1.40;1.30;;;18.50;45.90;;;;;;5050033;28;20262;-65
2022/03/08 10:24:24;;;;;;;1.95;1.48;;;18.50;45.90;;;;;;5050224;28;20171;-65
2022/03/08 10:26:57;;;;;;;1.40;1.30;;;18.50;45.90;;;;;;5051367;28;20191;-66
2022/03/08 10:29:30;;;;;;;1.50;1.25;;;18.50;45.80;;;;;;5054272;28;20207;-65
2022/03/08 10:32:10;;;;;;;1.33;1.17;;;18.50;45.80;;;;;;5054397;28;20258;-64
2022/03/08 10:34:37;;;;;;;1.25;1.13;;;18.40;45.70;;;;;;5053903;28;20251;-66
2022/03/08 10:37:07;;;;;;;1.92;1.60;;;18.50;45.80;;;;;;5054423;28;20175;-66
2022/03/08 10:39:33;;;;;;;3.08;1.38;;;18.50;45.80;;;;;;5054679;28;20252;-67
2022/03/08 10:41:58;;;;;;;3.80;1.58;;;18.50;45.80;;;;;;5053658;28;20700;-67
2022/03/08 10:44:35;;;;;;;2.88;1.38;;;18.50;45.80;;;;;;5053790;28;20172;-69
2022/03/08 10:47:08;;;;;;;1.48;1.30;;;18.50;45.80;;;;;;5054612;28;20196;-69
2022/03/08 10:49:35;;;;;;;1.30;1.20;;;18.50;45.80;;;;;;5052389;28;20175;-68
2022/03/08 10:52:05;;;;;;;1.75;1.40;;;18.50;45.90;;;;;;5054529;28;20175;-69
2022/03/08 10:54:31;;;;;;;2.20;1.48;;;18.50;45.90;;;;;;5053912;28;20309;-69
2022/03/08 10:56:57;;;;;;;1.45;1.35;;;18.60;45.90;;;;;;5053825;28;20179;-68
2022/03/08 10:59:22;;;;;;;1.85;1.48;;;18.60;45.90;;;;;;5053800;28;20179;-68
2022/03/08 11:01:48;;;;;;;2.80;1.60;;;18.60;45.90;;;;;;5053541;28;20665;-67
2022/03/08 11:04:21;;;;;;;2.60;1.65;;;18.60;45.90;;;;;;5052510;28;20176;-68
2022/03/08 11:06:50;;;;;;;1.75;1.50;;;18.60;46.00;;;;;;5051983;28;20182;-66
2022/03/08 11:09:16;;;;;;;4.15;1.55;;;18.60;46.00;;;;;;5052977;28;20179;-65
2022/03/08 11:11:41;;;;;;;2.67;1.60;;;18.60;46.00;;;;;;5052330;28;20229;-66
2022/03/08 11:14:07;;;;;;;3.97;1.70;;;18.60;45.80;;;;;;5049890;28;20175;-67
2022/03/08 11:16:32;;;;;;;11.35;1.67;;;18.60;45.90;;;;;;5041713;28;20183;-67
2022/03/08 11:18:58;;;;;;;3.20;1.52;;;18.60;45.90;;;;;;5027435;28;20171;-67
2022/03/08 11:21:23;;;;;;;2.53;1.50;;;18.60;45.80;;;;;;5051996;28;20219;-67
2022/03/08 11:23:50;;;;;;;3.17;1.60;;;18.60;45.80;;;;;;5034804;28;20533;-66
2022/03/08 11:26:16;;;;;;;2.20;1.42;;;18.60;45.80;;;;;;5032174;28;20262;-67
2022/03/08 11:28:45;;;;;;;3.28;1.20;;;18.60;45.70;;;;;;5033689;28;20259;-67
2022/03/08 11:31:11;;;;;;;2.25;1.52;;;18.60;45.60;;;;;;5038986;28;20361;-67
2022/03/08 11:33:58;;;;;;;2.83;1.38;;;18.70;45.70;;;;;;5051670;28;20254;-65
2022/03/08 11:36:35;;;;;;;2.85;1.30;;;18.70;45.70;;;;;;5051923;28;20186;-64
2022/03/08 11:39:16;;;;;;;2.38;1.40;;;18.70;45.60;;;;;;5035580;28;20225;-65
2022/03/08 11:41:43;;;;;;;4.13;1.23;;;18.70;45.70;;;;;;5053247;28;20288;-65
2022/03/08 11:44:19;;;;;;;2.58;1.30;;;18.70;45.50;;;;;;5053028;28;20175;-66
2022/03/08 11:47:17;;;;;;;2.50;1.30;;;18.70;45.50;;;;;;5053118;28;20591;-65
2022/03/08 11:49:46;;;;;;;5.40;1.42;;;18.70;45.50;;;;;;5030200;28;20191;-65
2022/03/08 11:52:19;;;;;;;1.10;1.00;;;18.70;45.40;;;;;;5051890;28;20714;-66
2022/03/08 11:55:03;;;;;;;1.40;1.30;;;18.70;45.40;;;;;;5053146;28;20235;-66
2022/03/08 11:57:47;;;;;;;1.58;1.10;;;18.80;45.30;;;;;;5052796;28;20183;-65
2022/03/08 12:00:30;;;;;;;5.22;1.92;;;18.80;45.20;;;;;;5051819;28;20228;-65
2022/03/08 12:02:58;;;;;;;1.48;1.30;;;18.80;45.20;;;;;;5053090;28;20225;-67
2022/03/08 12:05:45;;;;;;;2.47;1.50;;;18.80;44.90;;;;;;5052421;28;20713;-65
2022/03/08 12:08:29;;;;;;;4.63;2.03;;;18.70;44.80;;;;;;5052619;28;20183;-67
2022/03/08 12:11:05;;;;;;;2.75;1.58;;;18.70;44.70;;;;;;5052830;28;20171;-67
2022/03/08 12:13:36;;;;;;;2.15;1.40;;;18.70;44.70;;;;;;5051875;28;20216;-66
2022/03/08 12:16:10;;;;;;;2.50;1.65;;;18.70;45.30;;;;;;5052495;28;20214;-67
2022/03/08 12:18:36;;;;;;;2.72;1.35;;;18.70;44.50;;;;;;5052197;28;20179;-65
2022/03/08 12:21:14;;;;;;;4.45;1.50;;;18.70;44.50;;;;;;5051560;28;20182;-67
2022/03/08 12:23:54;;;;;;;6.63;1.88;;;18.70;44.50;;;;;;5052066;28;20508;-68
2022/03/08 12:26:26;;;;;;;3.38;1.77;;;18.70;44.60;;;;;;5052343;28;20178;-67
2022/03/08 12:29:28;;;;;;;2.50;1.48;;;18.70;44.60;;;;;;5051781;28;20202;-66
2022/03/08 12:31:57;;;;;;;2.72;1.30;;;18.70;44.70;;;;;;5052288;28;20174;-66
2022/03/08 12:34:40;;;;;;;3.17;1.27;;;18.70;44.70;;;;;;5051633;28;20233;-64
2022/03/08 12:37:07;;;;;;;3.90;1.42;;;18.70;44.80;;;;;;5052373;28;20206;-64
2022/03/08 12:40:01;;;;;;;2.78;1.38;;;18.70;44.80;;;;;;5052132;28;20738;-64
2022/03/08 12:42:31;;;;;;;1.80;1.52;;;18.80;44.90;;;;;;5051259;28;20270;-65
2022/03/08 12:45:02;;;;;;;3.15;1.40;;;18.80;45.00;;;;;;5052001;28;20248;-66
2022/03/08 12:47:48;;;;;;;1.50;1.30;;;18.70;45.00;;;;;;5051617;28;20179;-67